Pagina principale
METAR-TAF:

METAR-TAF

Aeroporti :

Pruniers

Romorantin, Francia

latitudine: 47-19N, longitudine: 001-41E, altezza: 85 m

Osservazione

Il bollettino è stato emesso 35 minuti fa, alle 04:30 UTC
Vento 12 kt da nord/nord-est con raffiche fino a 25 kt, variando fra nord/nord-ovest e est/nord-est
Temperature 3°C
Umidità 60%
Pressione 1024 hPa
Visibilità 10 km o più
Cielo coperto ad un'altezza di 3700 ft

METAR: LFYR 300430Z AUTO 03012G25KT 330V070 9999 OVC037 03/M04 Q1024 NOSIG

Ora: 07:05 (05:05 UTC)


TAF: mancante

Osservazioni e previsioni meteorologiche di più di 4000 aeroporti (messaggi METAR e TAF).

Le stazioni disponibili sono rappresentate dai dischi gialli e rossi sulla carta.

Puntare il mouse per vedere il nome della stazione.

Clicca sopra per visualizzare le osservazioni e previsioni meteorologiche.

Per cambiare la mappa : fare clic sui pulsanti verdi con una croce nera per ingrandire, il pulsante verde con un trattino per diminuire, o sulla freccia verde per le mappe adiacenti.


METAR-TAF: